Pasman, Argentina
Current Conditions -  °F | °C
As of 12:00 AM on Tuesday 21 Oct 2014 (Local Time) from SAZM Reporting Station
Broken Clouds Broken Clouds  
Wind Chill: 57°   Ceiling: 10000
Heat Index: 57°   Visibility: 6mi
Dew Point: 50°   Wind: 12mph
Humidity: 77%   Direction: 50°NE
Pressure: 30.06"   Gusts: NA
Location:  37.23°S, 62.17°W
Report Text: SAZM 210300Z 05010KT 9999 SCT020 BKN10014/10 Q1018
Loading
Personal Weather Stations






























Interactive Weather Map
Tropical Storm Tracking
New forecast layout! Learn more

10-Day Weather Forecast

Advertisements
Track Severe Weather on mobile